sensor_id;sensor_type;location;lat;lon;timestamp;pressure;altitude;pressure_sealevel;temperature;humidity
63190;BME280;49286;44.460;26.114;2022-12-11T00:01:42;98928.66;;;8.33;100.00
63190;BME280;49286;44.460;26.114;2022-12-11T00:04:08;98793.91;;;7.59;100.00
63190;BME280;49286;44.460;26.114;2022-12-11T00:06:33;98774.06;;;7.48;100.00
63190;BME280;49286;44.460;26.114;2022-12-11T00:08:59;98895.84;;;8.12;100.00
63190;BME280;49286;44.460;26.114;2022-12-11T00:11:24;98827.63;;;7.75;100.00
63190;BME280;49286;44.460;26.114;2022-12-11T00:13:50;98800.00;;;7.58;100.00
63190;BME280;49286;44.460;26.114;2022-12-11T00:16:15;98925.91;;;8.45;100.00
63190;BME280;49286;44.460;26.114;2022-12-11T00:18:41;98913.69;;;8.44;100.00
63190;BME280;49286;44.460;26.114;2022-12-11T00:21:09;98789.78;;;7.45;100.00
63190;BME280;49286;44.460;26.114;2022-12-11T00:23:35;98808.66;;;7.62;100.00
63190;BME280;49286;44.460;26.114;2022-12-11T00:26:08;98813.09;;;7.57;100.00
63190;BME280;49286;44.460;26.114;2022-12-11T00:28:34;98857.03;;;7.89;100.00
63190;BME280;49286;44.460;26.114;2022-12-11T00:31:08;98792.88;;;7.71;100.00
63190;BME280;49286;44.460;26.114;2022-12-11T00:33:35;98876.78;;;8.09;100.00
63190;BME280;49286;44.460;26.114;2022-12-11T00:36:01;98774.66;;;7.68;100.00
63190;BME280;49286;44.460;26.114;2022-12-11T00:38:26;98889.50;;;8.30;100.00
63190;BME280;49286;44.460;26.114;2022-12-11T00:40:57;98892.25;;;8.22;100.00
63190;BME280;49286;44.460;26.114;2022-12-11T00:43:23;98880.16;;;8.15;100.00
63190;BME280;49286;44.460;26.114;2022-12-11T00:45:48;98866.59;;;7.90;100.00
63190;BME280;49286;44.460;26.114;2022-12-11T00:48:14;98869.84;;;8.06;100.00
63190;BME280;49286;44.460;26.114;2022-12-11T00:50:40;98771.47;;;7.48;100.00
63190;BME280;49286;44.460;26.114;2022-12-11T00:53:06;98711.84;;;7.18;100.00
63190;BME280;49286;44.460;26.114;2022-12-11T00:55:35;98844.56;;;8.08;100.00
63190;BME280;49286;44.460;26.114;2022-12-11T00:58:01;98848.03;;;8.09;100.00
63190;BME280;49286;44.460;26.114;2022-12-11T01:00:27;98856.53;;;8.21;100.00
63190;BME280;49286;44.460;26.114;2022-12-11T01:02:52;98743.78;;;7.37;100.00
63190;BME280;49286;44.460;26.114;2022-12-11T01:05:18;98837.91;;;7.87;100.00
63190;BME280;49286;44.460;26.114;2022-12-11T01:07:43;98789.41;;;7.71;100.00
63190;BME280;49286;44.460;26.114;2022-12-11T01:10:11;98827.41;;;7.92;100.00
63190;BME280;49286;44.460;26.114;2022-12-11T01:13:04;98809.91;;;7.95;100.00
63190;BME280;49286;44.460;26.114;2022-12-11T01:15:41;98675.31;;;7.18;100.00
63190;BME280;49286;44.460;26.114;2022-12-11T01:18:09;98798.59;;;7.96;100.00
63190;BME280;49286;44.460;26.114;2022-12-11T01:20:36;98731.44;;;7.49;100.00
63190;BME280;49286;44.460;26.114;2022-12-11T01:23:03;98750.41;;;7.58;100.00
63190;BME280;49286;44.460;26.114;2022-12-11T01:25:28;98774.63;;;7.70;100.00
63190;BME280;49286;44.460;26.114;2022-12-11T01:27:54;98793.53;;;7.87;100.00
63190;BME280;49286;44.460;26.114;2022-12-11T01:30:21;98784.06;;;7.80;100.00
63190;BME280;49286;44.460;26.114;2022-12-11T01:32:47;98776.19;;;7.81;100.00
63190;BME280;49286;44.460;26.114;2022-12-11T01:35:13;98787.97;;;8.07;100.00
63190;BME280;49286;44.460;26.114;2022-12-11T01:37:39;98677.66;;;7.38;100.00
63190;BME280;49286;44.460;26.114;2022-12-11T01:40:06;98766.63;;;7.82;100.00
63190;BME280;49286;44.460;26.114;2022-12-11T01:42:32;98638.94;;;7.11;100.00
63190;BME280;49286;44.460;26.114;2022-12-11T01:45:26;98789.94;;;7.94;100.00
63190;BME280;49286;44.460;26.114;2022-12-11T01:50:23;98776.88;;;7.93;100.00
63190;BME280;49286;44.460;26.114;2022-12-11T01:52:49;98744.75;;;7.88;100.00
63190;BME280;49286;44.460;26.114;2022-12-11T01:55:15;98753.38;;;7.93;100.00
63190;BME280;49286;44.460;26.114;2022-12-11T01:57:44;98671.44;;;7.47;100.00
63190;BME280;49286;44.460;26.114;2022-12-11T02:00:11;98622.41;;;7.12;100.00
63190;BME280;49286;44.460;26.114;2022-12-11T02:02:37;98744.66;;;7.94;100.00
63190;BME280;49286;44.460;26.114;2022-12-11T02:05:04;98613.56;;;7.22;100.00
63190;BME280;49286;44.460;26.114;2022-12-11T02:07:38;98705.69;;;7.81;100.00
63190;BME280;49286;44.460;26.114;2022-12-11T02:10:06;98598.94;;;7.12;100.00
63190;BME280;49286;44.460;26.114;2022-12-11T02:17:47;98730.00;;;7.87;100.00
63190;BME280;49286;44.460;26.114;2022-12-11T02:20:36;98571.34;;;6.97;100.00
63190;BME280;49286;44.460;26.114;2022-12-11T02:29:00;98692.84;;;7.69;100.00
63190;BME280;49286;44.460;26.114;2022-12-11T02:31:33;98592.84;;;7.13;100.00
63190;BME280;49286;44.460;26.114;2022-12-11T02:34:31;98572.13;;;7.04;100.00
63190;BME280;49286;44.460;26.114;2022-12-11T02:37:07;98708.47;;;7.71;100.00
63190;BME280;49286;44.460;26.114;2022-12-11T02:39:38;98565.31;;;6.93;100.00
63190;BME280;49286;44.460;26.114;2022-12-11T02:42:05;98615.34;;;7.18;100.00
63190;BME280;49286;44.460;26.114;2022-12-11T02:44:34;98701.41;;;7.77;100.00
63190;BME280;49286;44.460;26.114;2022-12-11T02:47:01;98693.47;;;7.83;100.00
63190;BME280;49286;44.460;26.114;2022-12-11T02:49:29;98564.22;;;7.07;100.00
63190;BME280;49286;44.460;26.114;2022-12-11T02:51:56;98661.66;;;7.61;100.00
63190;BME280;49286;44.460;26.114;2022-12-11T02:54:27;98680.63;;;7.71;100.00
63190;BME280;49286;44.460;26.114;2022-12-11T02:57:00;98591.91;;;7.15;100.00
63190;BME280;49286;44.460;26.114;2022-12-11T02:59:37;98533.09;;;6.97;100.00
63190;BME280;49286;44.460;26.114;2022-12-11T03:02:05;98676.19;;;7.76;100.00
63190;BME280;49286;44.460;26.114;2022-12-11T03:04:31;98523.53;;;6.98;100.00
63190;BME280;49286;44.460;26.114;2022-12-11T03:07:02;98551.09;;;7.13;100.00
63190;BME280;49286;44.460;26.114;2022-12-11T03:09:42;98550.19;;;7.17;100.00
63190;BME280;49286;44.460;26.114;2022-12-11T03:12:09;98621.59;;;7.63;100.00
63190;BME280;49286;44.460;26.114;2022-12-11T03:14:36;98514.03;;;6.95;100.00
63190;BME280;49286;44.460;26.114;2022-12-11T03:17:24;98653.59;;;7.75;100.00
63190;BME280;49286;44.460;26.114;2022-12-11T03:25:58;98562.94;;;7.32;100.00
63190;BME280;49286;44.460;26.114;2022-12-11T03:28:33;98617.88;;;7.77;100.00
63190;BME280;49286;44.460;26.114;2022-12-11T03:31:10;98475.84;;;6.91;100.00
63190;BME280;49286;44.460;26.114;2022-12-11T03:33:40;98618.66;;;7.82;100.00
63190;BME280;49286;44.460;26.114;2022-12-11T03:36:12;98496.47;;;7.05;100.00
63190;BME280;49286;44.460;26.114;2022-12-11T03:38:46;98579.03;;;7.59;100.00
63190;BME280;49286;44.460;26.114;2022-12-11T03:41:18;98609.16;;;7.77;100.00
63190;BME280;49286;44.460;26.114;2022-12-11T03:43:47;98574.75;;;7.56;100.00
63190;BME280;49286;44.460;26.114;2022-12-11T03:46:17;98583.28;;;7.65;100.00
63190;BME280;49286;44.460;26.114;2022-12-11T03:48:47;98604.75;;;7.82;100.00
63190;BME280;49286;44.460;26.114;2022-12-11T03:51:13;98497.94;;;7.22;100.00
63190;BME280;49286;44.460;26.114;2022-12-11T03:53:40;98572.66;;;7.74;100.00
63190;BME280;49286;44.460;26.114;2022-12-11T03:56:09;98490.09;;;7.22;100.00
63190;BME280;49286;44.460;26.114;2022-12-11T03:58:35;98594.94;;;7.93;100.00
63190;BME280;49286;44.460;26.114;2022-12-11T04:01:01;98540.66;;;7.63;100.00
63190;BME280;49286;44.460;26.114;2022-12-11T04:03:27;98567.19;;;7.89;100.00
63190;BME280;49286;44.460;26.114;2022-12-11T04:05:54;98481.72;;;7.52;100.00
63190;BME280;49286;44.460;26.114;2022-12-11T04:08:20;98581.41;;;8.19;100.00
63190;BME280;49286;44.460;26.114;2022-12-11T04:10:46;98581.47;;;8.15;100.00
63190;BME280;49286;44.460;26.114;2022-12-11T04:13:13;98486.91;;;7.54;100.00
63190;BME280;49286;44.460;26.114;2022-12-11T04:15:39;98460.28;;;7.35;100.00
63190;BME280;49286;44.460;26.114;2022-12-11T04:18:06;98585.03;;;8.11;100.00
63190;BME280;49286;44.460;26.114;2022-12-11T04:20:54;98571.16;;;8.09;100.00
63190;BME280;49286;44.460;26.114;2022-12-11T04:23:38;98476.41;;;7.57;100.00
63190;BME280;49286;44.460;26.114;2022-12-11T04:26:22;98585.72;;;8.20;100.00
63190;BME280;49286;44.460;26.114;2022-12-11T04:28:48;98575.56;;;8.05;100.00
63190;BME280;49286;44.460;26.114;2022-12-11T04:31:17;98584.00;;;8.19;100.00
63190;BME280;49286;44.460;26.114;2022-12-11T04:33:43;98475.56;;;7.55;100.00
63190;BME280;49286;44.460;26.114;2022-12-11T04:36:10;98466.75;;;7.62;100.00
63190;BME280;49286;44.460;26.114;2022-12-11T04:38:36;98457.38;;;7.52;100.00
63190;BME280;49286;44.460;26.114;2022-12-11T04:41:10;98471.00;;;7.66;100.00
63190;BME280;49286;44.460;26.114;2022-12-11T04:43:36;98547.72;;;8.04;100.00
63190;BME280;49286;44.460;26.114;2022-12-11T04:46:13;98451.19;;;7.56;100.00
63190;BME280;49286;44.460;26.114;2022-12-11T04:48:40;98535.03;;;8.29;100.00
63190;BME280;49286;44.460;26.114;2022-12-11T04:51:06;98527.13;;;8.31;100.00
63190;BME280;49286;44.460;26.114;2022-12-11T04:53:31;98454.78;;;7.94;100.00
63190;BME280;49286;44.460;26.114;2022-12-11T04:55:57;98395.63;;;7.51;100.00
63190;BME280;49286;44.460;26.114;2022-12-11T04:58:23;98559.09;;;8.45;100.00
63190;BME280;49286;44.460;26.114;2022-12-11T05:00:49;98551.75;;;8.62;100.00
63190;BME280;49286;44.460;26.114;2022-12-11T05:03:16;98535.56;;;8.45;100.00
63190;BME280;49286;44.460;26.114;2022-12-11T05:05:52;98431.19;;;7.98;100.00
63190;BME280;49286;44.460;26.114;2022-12-11T05:08:19;98510.22;;;8.50;100.00
63190;BME280;49286;44.460;26.114;2022-12-11T05:10:54;98446.44;;;8.17;100.00
63190;BME280;49286;44.460;26.114;2022-12-11T05:13:20;98503.78;;;8.63;100.00
63190;BME280;49286;44.460;26.114;2022-12-11T05:15:45;98421.22;;;8.16;100.00
63190;BME280;49286;44.460;26.114;2022-12-11T05:18:11;98424.88;;;8.09;100.00
63190;BME280;49286;44.460;26.114;2022-12-11T05:20:36;98316.09;;;7.67;100.00
63190;BME280;49286;44.460;26.114;2022-12-11T05:23:02;98237.88;;;7.25;100.00
63190;BME280;49286;44.460;26.114;2022-12-11T05:25:27;98421.94;;;8.22;100.00
63190;BME280;49286;44.460;26.114;2022-12-11T05:27:53;98448.94;;;8.23;100.00
63190;BME280;49286;44.460;26.114;2022-12-11T05:30:18;98513.69;;;8.88;100.00
63190;BME280;49286;44.460;26.114;2022-12-11T05:32:44;98454.31;;;8.56;100.00
63190;BME280;49286;44.460;26.114;2022-12-11T05:35:09;98546.22;;;9.14;100.00
63190;BME280;49286;44.460;26.114;2022-12-11T05:37:34;98546.88;;;8.84;100.00
63190;BME280;49286;44.460;26.114;2022-12-11T05:40:00;98426.16;;;8.28;100.00
63190;BME280;49286;44.460;26.114;2022-12-11T05:42:26;98553.91;;;8.82;100.00
63190;BME280;49286;44.460;26.114;2022-12-11T05:44:51;98551.38;;;8.79;100.00
63190;BME280;49286;44.460;26.114;2022-12-11T05:47:17;98535.22;;;8.62;100.00
63190;BME280;49286;44.460;26.114;2022-12-11T05:49:44;98561.94;;;8.75;100.00
63190;BME280;49286;44.460;26.114;2022-12-11T05:52:11;98465.47;;;8.23;100.00
63190;BME280;49286;44.460;26.114;2022-12-11T05:54:37;98459.03;;;7.98;100.00
63190;BME280;49286;44.460;26.114;2022-12-11T05:57:02;98490.81;;;8.18;100.00
63190;BME280;49286;44.460;26.114;2022-12-11T05:59:27;98459.34;;;8.24;100.00
63190;BME280;49286;44.460;26.114;2022-12-11T06:01:53;98534.50;;;8.55;100.00
63190;BME280;49286;44.460;26.114;2022-12-11T06:04:18;98585.56;;;8.70;100.00
63190;BME280;49286;44.460;26.114;2022-12-11T06:06:44;98450.19;;;8.05;100.00
63190;BME280;49286;44.460;26.114;2022-12-11T06:09:13;98589.81;;;8.76;100.00
63190;BME280;49286;44.460;26.114;2022-12-11T06:11:39;98570.63;;;8.77;100.00
63190;BME280;49286;44.460;26.114;2022-12-11T06:14:04;98576.41;;;8.90;100.00
63190;BME280;49286;44.460;26.114;2022-12-11T06:16:30;98593.88;;;8.89;100.00
63190;BME280;49286;44.460;26.114;2022-12-11T06:18:56;98488.72;;;8.36;100.00
63190;BME280;49286;44.460;26.114;2022-12-11T06:21:30;98601.56;;;8.97;100.00
63190;BME280;49286;44.460;26.114;2022-12-11T06:23:57;98515.44;;;8.50;100.00
63190;BME280;49286;44.460;26.114;2022-12-11T06:26:24;98610.22;;;8.99;100.00
63190;BME280;49286;44.460;26.114;2022-12-11T06:28:50;98478.28;;;8.36;100.00
63190;BME280;49286;44.460;26.114;2022-12-11T06:31:18;98605.44;;;9.18;100.00
63190;BME280;49286;44.460;26.114;2022-12-11T06:33:43;98578.56;;;9.11;100.00
63190;BME280;49286;44.460;26.114;2022-12-11T06:36:15;98603.34;;;9.32;100.00
63190;BME280;49286;44.460;26.114;2022-12-11T06:38:41;98624.19;;;9.35;100.00
63190;BME280;49286;44.460;26.114;2022-12-11T06:41:07;98583.84;;;9.08;100.00
63190;BME280;49286;44.460;26.114;2022-12-11T06:43:36;98618.00;;;9.39;100.00
63190;BME280;49286;44.460;26.114;2022-12-11T06:46:06;98505.25;;;8.75;100.00
63190;BME280;49286;44.460;26.114;2022-12-11T06:48:32;98627.31;;;9.51;100.00
63190;BME280;49286;44.460;26.114;2022-12-11T06:50:58;98629.31;;;9.40;100.00
63190;BME280;49286;44.460;26.114;2022-12-11T06:53:23;98511.22;;;8.82;100.00
63190;BME280;49286;44.460;26.114;2022-12-11T06:55:49;98514.00;;;8.76;100.00
63190;BME280;49286;44.460;26.114;2022-12-11T06:58:14;98614.88;;;9.23;100.00
63190;BME280;49286;44.460;26.114;2022-12-11T07:00:40;98618.34;;;9.25;100.00
63190;BME280;49286;44.460;26.114;2022-12-11T07:03:08;98641.25;;;9.51;100.00
63190;BME280;49286;44.460;26.114;2022-12-11T07:05:34;98633.38;;;9.53;100.00
63190;BME280;49286;44.460;26.114;2022-12-11T07:07:59;98655.59;;;9.72;100.00
63190;BME280;49286;44.460;26.114;2022-12-11T07:10:25;98538.41;;;9.11;100.00
63190;BME280;49286;44.460;26.114;2022-12-11T07:12:52;98631.91;;;9.77;100.00
63190;BME280;49286;44.460;26.114;2022-12-11T07:15:18;98636.81;;;9.89;100.00
63190;BME280;49286;44.460;26.114;2022-12-11T07:17:44;98631.31;;;10.00;100.00
63190;BME280;49286;44.460;26.114;2022-12-11T07:20:10;98626.69;;;10.08;100.00
63190;BME280;49286;44.460;26.114;2022-12-11T07:22:35;98652.28;;;10.33;100.00
63190;BME280;49286;44.460;26.114;2022-12-11T07:25:00;98531.53;;;9.75;100.00
63190;BME280;49286;44.460;26.114;2022-12-11T07:27:26;98551.09;;;9.94;100.00
63190;BME280;49286;44.460;26.114;2022-12-11T07:29:52;98562.84;;;10.12;100.00
63190;BME280;49286;44.460;26.114;2022-12-11T07:32:19;98677.06;;;10.84;100.00
63190;BME280;49286;44.460;26.114;2022-12-11T07:34:47;98672.03;;;10.77;100.00
63190;BME280;49286;44.460;26.114;2022-12-11T07:37:12;98646.38;;;10.87;100.00
63190;BME280;49286;44.460;26.114;2022-12-11T07:39:38;98598.06;;;10.65;100.00
63190;BME280;49286;44.460;26.114;2022-12-11T07:42:03;98668.22;;;11.17;100.00
63190;BME280;49286;44.460;26.114;2022-12-11T07:44:30;98600.13;;;10.83;100.00
63190;BME280;49286;44.460;26.114;2022-12-11T07:46:56;98603.75;;;10.79;100.00
63190;BME280;49286;44.460;26.114;2022-12-11T07:49:21;98709.81;;;11.59;100.00
63190;BME280;49286;44.460;26.114;2022-12-11T07:51:47;98605.31;;;11.14;100.00
63190;BME280;49286;44.460;26.114;2022-12-11T07:54:13;98632.34;;;11.45;100.00
63190;BME280;49286;44.460;26.114;2022-12-11T07:56:45;98578.66;;;11.27;100.00
63190;BME280;49286;44.460;26.114;2022-12-11T07:59:11;98718.94;;;12.29;100.00
63190;BME280;49286;44.460;26.114;2022-12-11T08:01:38;98697.03;;;12.29;100.00
63190;BME280;49286;44.460;26.114;2022-12-11T08:04:05;98688.94;;;12.35;100.00
63190;BME280;49286;44.460;26.114;2022-12-11T08:06:34;98705.88;;;12.51;100.00
63190;BME280;49286;44.460;26.114;2022-12-11T08:09:01;98504.75;;;11.64;100.00
63190;BME280;49286;44.460;26.114;2022-12-11T08:11:28;98580.16;;;12.12;100.00
63190;BME280;49286;44.460;26.114;2022-12-11T08:13:54;98651.91;;;12.88;100.00
63190;BME280;49286;44.460;26.114;2022-12-11T08:16:20;98577.81;;;12.75;100.00
63190;BME280;49286;44.460;26.114;2022-12-11T08:18:46;98552.97;;;12.82;100.00
63190;BME280;49286;44.460;26.114;2022-12-11T08:21:17;98648.31;;;13.58;100.00
63190;BME280;49286;44.460;26.114;2022-12-11T08:23:44;98638.63;;;13.59;100.00
63190;BME280;49286;44.460;26.114;2022-12-11T08:26:13;98518.25;;;13.17;100.00
63190;BME280;49286;44.460;26.114;2022-12-11T08:28:39;98612.78;;;13.89;100.00
63190;BME280;49286;44.460;26.114;2022-12-11T08:31:06;98633.34;;;14.22;100.00
63190;BME280;49286;44.460;26.114;2022-12-11T08:33:33;98513.44;;;13.69;100.00
63190;BME280;49286;44.460;26.114;2022-12-11T08:36:01;98517.41;;;13.59;100.00
63190;BME280;49286;44.460;26.114;2022-12-11T08:38:27;98629.53;;;14.29;100.00
63190;BME280;49286;44.460;26.114;2022-12-11T08:40:52;98620.41;;;14.36;100.00
63190;BME280;49286;44.460;26.114;2022-12-11T08:43:18;98597.00;;;14.28;100.00
63190;BME280;49286;44.460;26.114;2022-12-11T08:45:45;98563.81;;;14.23;100.00
63190;BME280;49286;44.460;26.114;2022-12-11T08:48:10;98608.91;;;14.57;100.00
63190;BME280;49286;44.460;26.114;2022-12-11T08:50:36;98518.75;;;14.08;100.00
63190;BME280;49286;44.460;26.114;2022-12-11T08:53:01;98597.72;;;14.71;100.00
63190;BME280;49286;44.460;26.114;2022-12-11T08:55:27;98502.25;;;14.24;100.00
63190;BME280;49286;44.460;26.114;2022-12-11T08:57:54;98481.34;;;14.19;100.00
63190;BME280;49286;44.460;26.114;2022-12-11T09:00:19;98588.59;;;14.78;100.00
63190;BME280;49286;44.460;26.114;2022-12-11T09:02:46;98521.63;;;14.42;100.00
63190;BME280;49286;44.460;26.114;2022-12-11T09:05:13;98560.91;;;14.68;100.00
63190;BME280;49286;44.460;26.114;2022-12-11T09:07:38;98604.84;;;14.88;100.00
63190;BME280;49286;44.460;26.114;2022-12-11T09:10:05;98600.88;;;14.98;100.00
63190;BME280;49286;44.460;26.114;2022-12-11T09:12:32;98506.69;;;14.42;100.00
63190;BME280;49286;44.460;26.114;2022-12-11T09:14:58;98576.75;;;14.87;100.00
63190;BME280;49286;44.460;26.114;2022-12-11T09:17:24;98577.38;;;14.92;100.00
63190;BME280;49286;44.460;26.114;2022-12-11T09:19:50;98453.88;;;14.23;100.00
63190;BME280;49286;44.460;26.114;2022-12-11T09:22:15;98438.06;;;14.23;100.00
63190;BME280;49286;44.460;26.114;2022-12-11T09:24:41;98568.25;;;14.99;100.00
63190;BME280;49286;44.460;26.114;2022-12-11T09:27:06;98563.19;;;14.95;100.00
63190;BME280;49286;44.460;26.114;2022-12-11T09:29:31;98557.94;;;14.93;100.00
63190;BME280;49286;44.460;26.114;2022-12-11T09:31:57;98490.75;;;14.44;100.00
63190;BME280;49286;44.460;26.114;2022-12-11T09:34:23;98529.66;;;14.78;100.00
63190;BME280;49286;44.460;26.114;2022-12-11T09:36:48;98563.81;;;15.00;100.00
63190;BME280;49286;44.460;26.114;2022-12-11T09:39:15;98548.56;;;14.88;100.00
63190;BME280;49286;44.460;26.114;2022-12-11T09:44:36;98585.47;;;14.89;100.00
63190;BME280;49286;44.460;26.114;2022-12-11T09:47:18;98478.94;;;14.33;100.00
63190;BME280;49286;44.460;26.114;2022-12-11T09:49:46;98572.53;;;14.83;100.00
63190;BME280;49286;44.460;26.114;2022-12-11T09:52:25;98589.38;;;14.99;100.00
63190;BME280;49286;44.460;26.114;2022-12-11T09:55:00;98587.44;;;15.03;100.00
63190;BME280;49286;44.460;26.114;2022-12-11T10:00:19;98570.53;;;14.88;100.00
63190;BME280;49286;44.460;26.114;2022-12-11T10:11:32;98461.66;;;14.45;100.00
63190;BME280;49286;44.460;26.114;2022-12-11T10:14:08;98570.59;;;15.06;100.00
63190;BME280;49286;44.460;26.114;2022-12-11T10:19:03;98561.25;;;14.98;100.00
63190;BME280;49286;44.460;26.114;2022-12-11T10:21:40;98480.50;;;14.38;100.00
63190;BME280;49286;44.460;26.114;2022-12-11T10:24:32;98559.06;;;14.70;100.00
63190;BME280;49286;44.460;26.114;2022-12-11T10:27:11;98511.28;;;14.37;100.00
63190;BME280;49286;44.460;26.114;2022-12-11T10:29:38;98497.97;;;14.40;100.00
63190;BME280;49286;44.460;26.114;2022-12-11T10:32:14;98574.09;;;14.87;100.00
63190;BME280;49286;44.460;26.114;2022-12-11T10:34:43;98557.53;;;14.84;100.00
63190;BME280;49286;44.460;26.114;2022-12-11T10:37:11;98580.75;;;15.32;100.00
63190;BME280;49286;44.460;26.114;2022-12-11T10:39:37;98564.44;;;15.24;100.00
63190;BME280;49286;44.460;26.114;2022-12-11T10:42:17;98574.66;;;15.13;100.00
63190;BME280;49286;44.460;26.114;2022-12-11T10:45:00;98588.72;;;14.94;100.00
63190;BME280;49286;44.460;26.114;2022-12-11T10:47:27;98542.91;;;14.95;100.00
63190;BME280;49286;44.460;26.114;2022-12-11T10:49:58;98500.69;;;14.57;100.00
63190;BME280;49286;44.460;26.114;2022-12-11T10:52:31;98536.69;;;14.96;100.00
63190;BME280;49286;44.460;26.114;2022-12-11T10:55:01;98471.00;;;14.71;100.00
63190;BME280;49286;44.460;26.114;2022-12-11T10:57:34;98567.75;;;15.28;100.00
63190;BME280;49286;44.460;26.114;2022-12-11T11:00:04;98453.31;;;14.73;100.00
63190;BME280;49286;44.460;26.114;2022-12-11T11:02:33;98457.84;;;15.24;100.00
63190;BME280;49286;44.460;26.114;2022-12-11T11:05:13;98492.22;;;15.41;100.00
63190;BME280;49286;44.460;26.114;2022-12-11T11:07:39;98558.78;;;15.67;100.00
63190;BME280;49286;44.460;26.114;2022-12-11T11:12:38;98557.56;;;15.91;100.00
63190;BME280;49286;44.460;26.114;2022-12-11T11:15:17;98555.38;;;15.82;100.00
63190;BME280;49286;44.460;26.114;2022-12-11T11:17:48;98544.25;;;15.75;100.00
63190;BME280;49286;44.460;26.114;2022-12-11T11:20:18;98547.31;;;15.85;100.00
63190;BME280;49286;44.460;26.114;2022-12-11T11:22:49;98452.59;;;15.41;100.00
63190;BME280;49286;44.460;26.114;2022-12-11T11:25:19;98521.34;;;15.76;100.00
63190;BME280;49286;44.460;26.114;2022-12-11T11:27:50;98524.31;;;15.68;100.00
63190;BME280;49286;44.460;26.114;2022-12-11T11:32:50;98507.84;;;15.46;100.00
63190;BME280;49286;44.460;26.114;2022-12-11T11:35:24;98541.53;;;15.59;100.00
63190;BME280;49286;44.460;26.114;2022-12-11T11:40:41;98522.94;;;15.44;100.00
63190;BME280;49286;44.460;26.114;2022-12-11T11:43:19;98452.97;;;15.16;100.00
63190;BME280;49286;44.460;26.114;2022-12-11T11:52:01;98550.31;;;15.60;100.00
63190;BME280;49286;44.460;26.114;2022-12-11T11:54:33;98471.25;;;14.84;100.00
63190;BME280;49286;44.460;26.114;2022-12-11T11:57:11;98549.44;;;15.42;100.00
63190;BME280;49286;44.460;26.114;2022-12-11T11:59:43;98574.16;;;15.41;100.00
63190;BME280;49286;44.460;26.114;2022-12-11T12:02:15;98486.25;;;14.84;100.00
63190;BME280;49286;44.460;26.114;2022-12-11T12:04:43;98465.22;;;14.63;100.00
63190;BME280;49286;44.460;26.114;2022-12-11T12:17:54;98468.81;;;14.62;100.00
63190;BME280;49286;44.460;26.114;2022-12-11T12:26:10;98569.63;;;14.89;100.00
63190;BME280;49286;44.460;26.114;2022-12-11T12:28:53;98592.06;;;14.98;100.00
63190;BME280;49286;44.460;26.114;2022-12-11T12:43:08;98577.81;;;14.64;100.00
63190;BME280;49286;44.460;26.114;2022-12-11T12:46:00;98562.81;;;14.65;100.00
63190;BME280;49286;44.460;26.114;2022-12-11T12:48:29;98579.66;;;14.62;100.00
63190;BME280;49286;44.460;26.114;2022-12-11T12:50:55;98588.69;;;14.38;100.00
63190;BME280;49286;44.460;26.114;2022-12-11T12:53:26;98576.63;;;14.51;100.00
63190;BME280;49286;44.460;26.114;2022-12-11T12:55:53;98603.03;;;14.51;100.00
63190;BME280;49286;44.460;26.114;2022-12-11T12:58:38;98598.41;;;14.56;100.00
63190;BME280;49286;44.460;26.114;2022-12-11T13:01:21;98496.81;;;13.87;100.00
63190;BME280;49286;44.460;26.114;2022-12-11T13:08:54;98572.50;;;14.06;100.00
63190;BME280;49286;44.460;26.114;2022-12-11T13:11:20;98515.88;;;13.73;100.00
63190;BME280;49286;44.460;26.114;2022-12-11T13:14:20;98612.44;;;14.38;100.00
63190;BME280;49286;44.460;26.114;2022-12-11T13:16:48;98494.16;;;13.68;100.00
63190;BME280;49286;44.460;26.114;2022-12-11T13:24:26;98477.47;;;13.68;100.00
63190;BME280;49286;44.460;26.114;2022-12-11T13:26:52;98522.75;;;13.78;100.00
63190;BME280;49286;44.460;26.114;2022-12-11T13:29:39;98503.59;;;13.54;100.00
63190;BME280;49286;44.460;26.114;2022-12-11T13:34:36;98604.69;;;13.93;100.00
63190;BME280;49286;44.460;26.114;2022-12-11T13:37:03;98632.50;;;14.01;100.00
63190;BME280;49286;44.460;26.114;2022-12-11T13:39:31;98520.91;;;12.95;100.00
63190;BME280;49286;44.460;26.114;2022-12-11T13:42:04;98521.56;;;12.78;100.00
63190;BME280;49286;44.460;26.114;2022-12-11T13:44:35;98605.78;;;13.23;100.00
63190;BME280;49286;44.460;26.114;2022-12-11T13:47:05;98617.41;;;13.18;100.00
63190;BME280;49286;44.460;26.114;2022-12-11T13:49:36;98641.06;;;13.19;100.00
63190;BME280;49286;44.460;26.114;2022-12-11T13:52:04;98650.06;;;13.14;100.00
63190;BME280;49286;44.460;26.114;2022-12-11T13:54:33;98537.88;;;12.42;100.00
63190;BME280;49286;44.460;26.114;2022-12-11T13:57:15;98534.78;;;12.31;100.00
63190;BME280;49286;44.460;26.114;2022-12-11T13:59:49;98674.38;;;12.97;100.00
63190;BME280;49286;44.460;26.114;2022-12-11T14:02:35;98691.16;;;12.71;100.00
63190;BME280;49286;44.460;26.114;2022-12-11T14:05:06;98580.22;;;11.84;100.00
63190;BME280;49286;44.460;26.114;2022-12-11T14:07:45;98688.72;;;12.41;100.00
63190;BME280;49286;44.460;26.114;2022-12-11T14:12:52;98723.44;;;12.25;100.00
63190;BME280;49286;44.460;26.114;2022-12-11T14:15:21;98732.63;;;12.12;100.00
63190;BME280;49286;44.460;26.114;2022-12-11T14:17:48;98704.97;;;12.00;100.00
63190;BME280;49286;44.460;26.114;2022-12-11T14:20:21;98749.13;;;11.91;100.00
63190;BME280;49286;44.460;26.114;2022-12-11T14:22:48;98733.19;;;11.67;100.00
63190;BME280;49286;44.460;26.114;2022-12-11T14:25:20;98746.97;;;11.75;100.00
63190;BME280;49286;44.460;26.114;2022-12-11T14:27:54;98726.13;;;11.69;100.00
63190;BME280;49286;44.460;26.114;2022-12-11T14:30:29;98731.72;;;11.58;100.00